Time;durP1;ratioP1;P1;durP2;ratioP2;P2;SDS_P1;SDS_P2;PMS_P1;PMS_P2;Temp;Humidity;BMP_temperature;BMP_pressure;BME280_temperature;BME280_humidity;BME280_pressure;Samples;Min_cycle;Max_cycle;Signal;HPM_P1;HPM_P2
2021/12/06 00:02:19;;;;;;;7.05;3.65;;;;;;;;;;6261754;22;20053;-45
2021/12/06 00:04:44;;;;;;;4.28;2.92;;;;;;;;;;6263710;22;20008;-43
2021/12/06 00:07:14;;;;;;;7.68;3.08;;;;;;;;;;6263063;22;20019;-44
2021/12/06 00:09:39;;;;;;;7.00;2.47;;;;;;;;;;6261782;22;20012;-44
2021/12/06 00:12:05;;;;;;;6.90;3.00;;;;;;;;;;6263529;22;20015;-43
2021/12/06 00:14:33;;;;;;;12.65;3.22;;;;;;;;;;6261871;22;20031;-44
2021/12/06 00:17:00;;;;;;;7.03;3.55;;;;;;;;;;6262222;22;20007;-43
2021/12/06 00:19:25;;;;;;;9.82;3.25;;;;;;;;;;6262687;22;20019;-43
2021/12/06 00:21:51;;;;;;;5.43;2.83;;;;;;;;;;6263753;22;20331;-44
2021/12/06 00:24:17;;;;;;;6.63;2.85;;;;;;;;;;6263637;22;20520;-44
2021/12/06 00:26:42;;;;;;;5.00;2.97;;;;;;;;;;6263679;22;20003;-44
2021/12/06 00:29:09;;;;;;;5.00;2.72;;;;;;;;;;6261978;22;20011;-43
2021/12/06 00:31:35;;;;;;;4.05;3.00;;;;;;;;;;6262864;22;20015;-49
2021/12/06 00:34:04;;;;;;;3.35;2.63;;;;;;;;;;6261862;22;20019;-45
2021/12/06 00:36:31;;;;;;;3.15;1.95;;;;;;;;;;6262893;22;20003;-43
2021/12/06 00:38:57;;;;;;;6.78;2.92;;;;;;;;;;6261180;22;20347;-44
2021/12/06 00:41:23;;;;;;;4.25;2.38;;;;;;;;;;6263108;22;20007;-45
2021/12/06 00:43:48;;;;;;;4.50;2.28;;;;;;;;;;6260904;22;20008;-44
2021/12/06 00:46:13;;;;;;;3.83;3.33;;;;;;;;;;6261685;22;20079;-45
2021/12/06 00:48:38;;;;;;;3.20;2.28;;;;;;;;;;6260244;22;20014;-46
2021/12/06 00:51:04;;;;;;;3.65;2.63;;;;;;;;;;6262956;22;20504;-45
2021/12/06 00:53:29;;;;;;;5.72;2.47;;;;;;;;;;6264278;22;20012;-45
2021/12/06 00:55:55;;;;;;;4.72;2.55;;;;;;;;;;6266625;22;20054;-44
2021/12/06 00:58:20;;;;;;;7.55;2.90;;;;;;;;;;6265040;22;20497;-43
2021/12/06 01:00:47;;;;;;;4.95;2.75;;;;;;;;;;6265160;22;20022;-45
2021/12/06 01:03:14;;;;;;;9.02;3.25;;;;;;;;;;6263994;22;20016;-42
2021/12/06 01:05:40;;;;;;;6.07;2.63;;;;;;;;;;6264999;22;20012;-44
2021/12/06 01:08:05;;;;;;;5.60;3.70;;;;;;;;;;6265354;22;20157;-43
2021/12/06 01:10:32;;;;;;;6.45;3.63;;;;;;;;;;6264514;22;20015;-43
2021/12/06 01:12:58;;;;;;;7.82;3.33;;;;;;;;;;6265154;22;20008;-44
2021/12/06 01:15:23;;;;;;;4.10;2.58;;;;;;;;;;6264995;22;20024;-43
2021/12/06 01:17:49;;;;;;;9.18;3.10;;;;;;;;;;6265633;22;20011;-43
2021/12/06 01:20:20;;;;;;;6.05;2.80;;;;;;;;;;6264282;22;20089;-45
2021/12/06 01:22:56;;;;;;;8.00;3.60;;;;;;;;;;6265452;22;20008;-45
2021/12/06 01:25:40;;;;;;;9.20;3.25;;;;;;;;;;6265113;22;20007;-45
2021/12/06 01:41:24;;;;;;;9.07;3.08;;;;;;;;;;6265300;22;20018;-44
2021/12/06 01:44:03;;;;;;;7.10;2.45;;;;;;;;;;6263967;22;20008;-44
2021/12/06 01:46:28;;;;;;;4.35;3.10;;;;;;;;;;6264617;22;20011;-42
2021/12/06 01:48:54;;;;;;;5.50;2.75;;;;;;;;;;6263143;22;20454;-43
2021/12/06 01:51:19;;;;;;;6.53;2.90;;;;;;;;;;6264994;22;20043;-42
2021/12/06 01:53:44;;;;;;;4.78;2.50;;;;;;;;;;6264139;22;20034;-42
2021/12/06 01:56:10;;;;;;;4.30;2.85;;;;;;;;;;6264672;22;20043;-42
2021/12/06 01:58:35;;;;;;;8.40;3.05;;;;;;;;;;6263229;22;20003;-42
2021/12/06 02:01:01;;;;;;;3.22;2.90;;;;;;;;;;6265279;22;20053;-43
2021/12/06 02:03:26;;;;;;;4.88;2.70;;;;;;;;;;6265338;22;20011;-43
2021/12/06 02:05:51;;;;;;;5.43;2.80;;;;;;;;;;6264162;22;20022;-42
2021/12/06 02:08:17;;;;;;;4.00;2.83;;;;;;;;;;6263629;22;20019;-43
2021/12/06 02:10:42;;;;;;;5.07;2.55;;;;;;;;;;6264443;22;20012;-42
2021/12/06 02:13:09;;;;;;;4.07;2.55;;;;;;;;;;6261297;22;20022;-44
2021/12/06 02:15:45;;;;;;;8.13;3.10;;;;;;;;;;6265390;22;20023;-42
2021/12/06 02:18:26;;;;;;;6.35;2.88;;;;;;;;;;6261925;22;20012;-45
2021/12/06 02:21:01;;;;;;;3.35;2.67;;;;;;;;;;6262150;22;20012;-42
2021/12/06 02:23:27;;;;;;;3.45;2.65;;;;;;;;;;6265246;22;20423;-49
2021/12/06 02:25:52;;;;;;;11.90;2.88;;;;;;;;;;6262301;22;20546;-45
2021/12/06 02:28:17;;;;;;;3.92;2.58;;;;;;;;;;6264443;22;20015;-44
2021/12/06 02:30:43;;;;;;;4.38;2.50;;;;;;;;;;6264655;22;20004;-46
2021/12/06 02:33:08;;;;;;;7.05;2.72;;;;;;;;;;6265001;22;20087;-44
2021/12/06 02:35:34;;;;;;;7.43;2.85;;;;;;;;;;6264115;22;20329;-43
2021/12/06 02:38:02;;;;;;;6.55;3.38;;;;;;;;;;6265278;22;20016;-47
2021/12/06 02:40:28;;;;;;;4.57;3.10;;;;;;;;;;6264165;22;19999;-45
2021/12/06 02:42:54;;;;;;;5.75;2.85;;;;;;;;;;6264140;22;20016;-45
2021/12/06 02:45:21;;;;;;;5.28;2.92;;;;;;;;;;6264639;22;20014;-44
2021/12/06 02:47:53;;;;;;;5.70;2.67;;;;;;;;;;6264038;22;20082;-45
2021/12/06 02:50:19;;;;;;;4.95;2.78;;;;;;;;;;6263181;22;20038;-45
2021/12/06 02:52:44;;;;;;;8.35;3.03;;;;;;;;;;6265786;22;20008;-43
2021/12/06 02:55:34;;;;;;;4.47;2.95;;;;;;;;;;6265374;22;20020;-45
2021/12/06 02:57:58;;;;;;;4.25;2.90;;;;;;;;;;6266276;22;20007;-43
2021/12/06 03:00:24;;;;;;;8.32;3.05;;;;;;;;;;6264646;22;20012;-43
2021/12/06 03:02:49;;;;;;;4.10;2.65;;;;;;;;;;6266802;22;20112;-43
2021/12/06 03:05:15;;;;;;;6.13;2.90;;;;;;;;;;6265952;22;20004;-45
2021/12/06 03:07:40;;;;;;;6.38;4.47;;;;;;;;;;6265716;22;20011;-42
2021/12/06 03:10:07;;;;;;;8.05;3.25;;;;;;;;;;6267369;22;20337;-45
2021/12/06 03:12:32;;;;;;;5.78;2.80;;;;;;;;;;6266011;22;20093;-45
2021/12/06 03:14:59;;;;;;;6.43;2.58;;;;;;;;;;6263271;22;20452;-44
2021/12/06 03:17:27;;;;;;;5.07;2.53;;;;;;;;;;6265846;22;20058;-44
2021/12/06 03:19:52;;;;;;;6.82;2.80;;;;;;;;;;6266027;22;20020;-44
2021/12/06 03:22:18;;;;;;;3.38;3.00;;;;;;;;;;6266211;22;20000;-43
2021/12/06 03:24:44;;;;;;;5.82;3.05;;;;;;;;;;6266574;22;20012;-43
2021/12/06 03:27:09;;;;;;;6.15;2.60;;;;;;;;;;6266740;22;20008;-43
2021/12/06 03:29:35;;;;;;;7.88;2.60;;;;;;;;;;6265692;22;20014;-43
2021/12/06 03:32:00;;;;;;;6.13;2.53;;;;;;;;;;6266192;22;20015;-43
2021/12/06 03:34:26;;;;;;;5.28;2.50;;;;;;;;;;6266313;22;20406;-45
2021/12/06 03:36:52;;;;;;;6.13;2.60;;;;;;;;;;6266093;22;20007;-43
2021/12/06 03:39:23;;;;;;;3.67;2.47;;;;;;;;;;6265942;22;20011;-45
2021/12/06 03:41:49;;;;;;;4.65;2.33;;;;;;;;;;6266195;22;20003;-45
2021/12/06 03:44:14;;;;;;;6.47;2.85;;;;;;;;;;6265988;22;20086;-45
2021/12/06 03:46:40;;;;;;;3.92;2.78;;;;;;;;;;6266010;22;20011;-46
2021/12/06 03:49:10;;;;;;;4.93;2.50;;;;;;;;;;6264394;22;20459;-43
2021/12/06 03:51:36;;;;;;;8.95;3.55;;;;;;;;;;6265670;22;20043;-44
2021/12/06 03:54:01;;;;;;;4.50;2.53;;;;;;;;;;6266633;22;20047;-43
2021/12/06 03:56:26;;;;;;;6.03;2.67;;;;;;;;;;6266553;22;20012;-43
2021/12/06 03:58:52;;;;;;;6.13;2.80;;;;;;;;;;6266585;22;20007;-43
2021/12/06 04:01:17;;;;;;;6.50;2.47;;;;;;;;;;6266327;22;20529;-45
2021/12/06 04:03:43;;;;;;;3.33;2.80;;;;;;;;;;6263430;22;20039;-43
2021/12/06 04:06:09;;;;;;;6.03;2.97;;;;;;;;;;6266965;22;20462;-43
2021/12/06 04:08:34;;;;;;;8.02;3.22;;;;;;;;;;6265151;22;20347;-43
2021/12/06 04:10:59;;;;;;;7.75;4.88;;;;;;;;;;6264107;22;20409;-45
2021/12/06 04:13:25;;;;;;;11.30;3.05;;;;;;;;;;6265729;22;20042;-45
2021/12/06 04:15:50;;;;;;;4.97;3.20;;;;;;;;;;6264735;22;20016;-44
2021/12/06 04:18:15;;;;;;;4.65;3.47;;;;;;;;;;6263072;22;20082;-43
2021/12/06 04:20:41;;;;;;;4.95;2.45;;;;;;;;;;6264995;22;20011;-44
2021/12/06 04:23:07;;;;;;;7.75;2.70;;;;;;;;;;6265761;22;20003;-44
2021/12/06 04:25:33;;;;;;;7.70;3.50;;;;;;;;;;6264891;22;20390;-44
2021/12/06 04:28:04;;;;;;;6.05;3.85;;;;;;;;;;6266787;22;20493;-43
2021/12/06 04:30:29;;;;;;;6.15;2.83;;;;;;;;;;6265747;22;20007;-44
2021/12/06 04:32:54;;;;;;;9.98;2.95;;;;;;;;;;6264998;22;20090;-43
2021/12/06 04:35:20;;;;;;;6.68;4.43;;;;;;;;;;6265846;22;20054;-44
2021/12/06 04:37:45;;;;;;;8.43;3.00;;;;;;;;;;6265017;22;20019;-43
2021/12/06 04:40:11;;;;;;;5.05;3.17;;;;;;;;;;6265754;22;20011;-43
2021/12/06 04:42:36;;;;;;;6.60;2.40;;;;;;;;;;6264531;22;20015;-44
2021/12/06 04:45:02;;;;;;;8.10;2.58;;;;;;;;;;6264097;22;20738;-43
2021/12/06 04:47:27;;;;;;;7.15;2.90;;;;;;;;;;6264331;22;20256;-43
2021/12/06 04:49:52;;;;;;;8.15;2.30;;;;;;;;;;6262886;22;20008;-43
2021/12/06 04:52:18;;;;;;;2.85;1.83;;;;;;;;;;6265308;22;20034;-45
2021/12/06 04:54:46;;;;;;;5.28;2.50;;;;;;;;;;6266393;22;20093;-45
2021/12/06 04:57:15;;;;;;;6.75;2.38;;;;;;;;;;6261120;22;20014;-43
2021/12/06 04:59:42;;;;;;;6.18;3.10;;;;;;;;;;6266524;22;20014;-44
2021/12/06 05:02:09;;;;;;;4.03;2.33;;;;;;;;;;6264603;22;20004;-44
2021/12/06 05:04:36;;;;;;;7.57;2.38;;;;;;;;;;6265478;22;20431;-44
2021/12/06 05:07:05;;;;;;;2.65;2.00;;;;;;;;;;6265343;22;20073;-44
2021/12/06 05:09:33;;;;;;;8.27;3.73;;;;;;;;;;6265638;22;20008;-44
2021/12/06 05:11:59;;;;;;;3.58;2.20;;;;;;;;;;6265710;22;20340;-44
2021/12/06 05:14:25;;;;;;;4.05;2.10;;;;;;;;;;6266513;22;20422;-44
2021/12/06 05:16:50;;;;;;;4.18;2.38;;;;;;;;;;6263144;22;20057;-46
2021/12/06 05:19:15;;;;;;;3.70;1.65;;;;;;;;;;6265526;22;20007;-43
2021/12/06 05:21:40;;;;;;;5.65;1.95;;;;;;;;;;6263889;22;20011;-43
2021/12/06 05:24:07;;;;;;;3.28;2.28;;;;;;;;;;6265823;22;20015;-43
2021/12/06 05:26:33;;;;;;;6.28;2.45;;;;;;;;;;6265726;22;20016;-44
2021/12/06 05:29:01;;;;;;;5.22;2.70;;;;;;;;;;6264112;22;20054;-43
2021/12/06 05:31:26;;;;;;;5.20;2.40;;;;;;;;;;6265556;22;20011;-45
2021/12/06 05:33:56;;;;;;;5.00;2.35;;;;;;;;;;6264927;22;20006;-43
2021/12/06 05:36:22;;;;;;;7.68;2.92;;;;;;;;;;6264595;22;20018;-43
2021/12/06 05:38:49;;;;;;;2.60;2.10;;;;;;;;;;6264612;22;20114;-43
2021/12/06 05:41:14;;;;;;;9.45;4.18;;;;;;;;;;6264644;22;20070;-45
2021/12/06 05:43:39;;;;;;;5.93;2.58;;;;;;;;;;6262571;22;20440;-43
2021/12/06 05:46:05;;;;;;;2.22;1.75;;;;;;;;;;6265986;22;20400;-44
2021/12/06 05:48:31;;;;;;;2.65;1.60;;;;;;;;;;6263115;22;20028;-44
2021/12/06 05:50:56;;;;;;;2.63;1.98;;;;;;;;;;6264292;22;20476;-43
2021/12/06 05:53:22;;;;;;;6.60;2.55;;;;;;;;;;6264302;22;20007;-43
2021/12/06 05:55:47;;;;;;;4.30;2.28;;;;;;;;;;6264011;22;20402;-43
2021/12/06 05:58:13;;;;;;;6.22;2.10;;;;;;;;;;6264103;22;20057;-44
2021/12/06 06:00:38;;;;;;;7.38;3.08;;;;;;;;;;6264901;22;20011;-46
2021/12/06 06:03:05;;;;;;;3.88;2.10;;;;;;;;;;6264837;22;20011;-43
2021/12/06 06:05:31;;;;;;;6.95;3.17;;;;;;;;;;6262757;22;20042;-44
2021/12/06 06:07:57;;;;;;;4.43;2.38;;;;;;;;;;6265607;22;20000;-44
2021/12/06 06:10:22;;;;;;;5.28;2.20;;;;;;;;;;6264257;22;20388;-46
2021/12/06 06:12:47;;;;;;;2.58;1.90;;;;;;;;;;6265342;22;20004;-43
2021/12/06 06:15:13;;;;;;;6.25;2.42;;;;;;;;;;6263993;22;20114;-44
2021/12/06 06:17:42;;;;;;;7.50;2.40;;;;;;;;;;6263913;22;20004;-43
2021/12/06 06:20:09;;;;;;;6.05;2.08;;;;;;;;;;6264910;22;20057;-45
2021/12/06 06:22:34;;;;;;;4.13;2.40;;;;;;;;;;6263684;22;20016;-44
2021/12/06 06:25:00;;;;;;;4.20;2.17;;;;;;;;;;6265586;22;20010;-44
2021/12/06 06:27:25;;;;;;;2.75;2.05;;;;;;;;;;6266623;22;20082;-43
2021/12/06 06:29:50;;;;;;;10.43;2.50;;;;;;;;;;6267413;22;20337;-45
2021/12/06 06:32:15;;;;;;;10.43;2.30;;;;;;;;;;6265504;22;20027;-46
2021/12/06 06:34:40;;;;;;;3.50;2.42;;;;;;;;;;6266459;22;20066;-47
2021/12/06 06:37:06;;;;;;;6.07;1.88;;;;;;;;;;6266231;22;20578;-44
2021/12/06 06:39:31;;;;;;;5.63;2.17;;;;;;;;;;6264526;22;20601;-43
2021/12/06 06:41:56;;;;;;;4.05;1.98;;;;;;;;;;6267337;22;20007;-44
2021/12/06 06:44:22;;;;;;;2.42;1.55;;;;;;;;;;6266325;22;20008;-44
2021/12/06 06:46:48;;;;;;;4.32;1.65;;;;;;;;;;6267562;22;20022;-44
2021/12/06 06:49:13;;;;;;;1.90;1.50;;;;;;;;;;6266176;22;20463;-43
2021/12/06 06:51:39;;;;;;;8.57;2.17;;;;;;;;;;6266363;22;20016;-44
2021/12/06 06:54:05;;;;;;;4.32;1.55;;;;;;;;;;6266377;22;20025;-44
2021/12/06 06:56:30;;;;;;;3.17;1.77;;;;;;;;;;6266538;22;20011;-43
2021/12/06 06:58:56;;;;;;;6.93;1.67;;;;;;;;;;6267919;22;20083;-44
2021/12/06 07:01:21;;;;;;;5.78;2.22;;;;;;;;;;6265207;22;20088;-46
2021/12/06 07:03:50;;;;;;;7.82;1.70;;;;;;;;;;6267978;22;20103;-43
2021/12/06 07:06:15;;;;;;;7.47;2.50;;;;;;;;;;6265869;22;20019;-44
2021/12/06 07:08:42;;;;;;;2.67;1.38;;;;;;;;;;6267766;22;20018;-45
2021/12/06 07:11:07;;;;;;;4.07;1.92;;;;;;;;;;6265213;22;20022;-45
2021/12/06 07:13:37;;;;;;;2.80;1.42;;;;;;;;;;6266913;22;20007;-44
2021/12/06 07:16:03;;;;;;;3.55;1.80;;;;;;;;;;6266054;22;20021;-45
2021/12/06 07:18:28;;;;;;;3.38;2.13;;;;;;;;;;6266544;22;20031;-44
2021/12/06 07:20:54;;;;;;;7.32;4.07;;;;;;;;;;6266165;22;20027;-47
2021/12/06 07:23:19;;;;;;;5.40;1.67;;;;;;;;;;6264441;22;20530;-47
2021/12/06 07:25:44;;;;;;;4.93;2.05;;;;;;;;;;6265983;22;20058;-44
2021/12/06 07:28:09;;;;;;;3.67;2.08;;;;;;;;;;6266262;22;20012;-47
2021/12/06 07:30:35;;;;;;;1.77;1.15;;;;;;;;;;6265000;22;20147;-44
2021/12/06 07:33:00;;;;;;;3.28;2.05;;;;;;;;;;6266804;22;20007;-44
2021/12/06 07:35:29;;;;;;;3.10;1.75;;;;;;;;;;6261943;22;20439;-44
2021/12/06 07:37:54;;;;;;;2.80;1.53;;;;;;;;;;6265307;22;20371;-43
2021/12/06 07:40:20;;;;;;;5.00;2.33;;;;;;;;;;6264997;22;20478;-42
2021/12/06 07:42:45;;;;;;;1.83;1.60;;;;;;;;;;6263726;22;20008;-43
2021/12/06 07:45:11;;;;;;;2.80;1.55;;;;;;;;;;6266803;22;20075;-42
2021/12/06 07:47:37;;;;;;;5.63;1.50;;;;;;;;;;6264145;22;20100;-43
2021/12/06 07:50:07;;;;;;;2.70;1.15;;;;;;;;;;6266847;22;20792;-43
2021/12/06 07:52:33;;;;;;;2.92;1.48;;;;;;;;;;6263709;22;20086;-46
2021/12/06 07:54:59;;;;;;;3.10;1.13;;;;;;;;;;6265851;22;20040;-44
2021/12/06 07:57:25;;;;;;;1.10;0.90;;;;;;;;;;6265949;22;20015;-43
2021/12/06 07:59:51;;;;;;;4.10;1.90;;;;;;;;;;6266381;22;20019;-43
2021/12/06 08:02:16;;;;;;;3.53;1.95;;;;;;;;;;6265182;22;20008;-44
2021/12/06 08:04:41;;;;;;;3.78;1.70;;;;;;;;;;6266574;22;20007;-43
2021/12/06 08:07:07;;;;;;;5.30;2.42;;;;;;;;;;6267305;22;20007;-44
2021/12/06 08:09:32;;;;;;;3.55;1.55;;;;;;;;;;6263990;22;20012;-43
2021/12/06 08:11:58;;;;;;;2.70;1.40;;;;;;;;;;6265171;22;20011;-44
2021/12/06 08:14:24;;;;;;;5.25;1.33;;;;;;;;;;6265870;22;20012;-43
2021/12/06 08:16:49;;;;;;;3.72;1.55;;;;;;;;;;6262517;22;20022;-43
2021/12/06 08:19:14;;;;;;;2.97;1.08;;;;;;;;;;6266510;22;20427;-41
2021/12/06 08:21:40;;;;;;;4.40;1.75;;;;;;;;;;6263575;22;20027;-42
2021/12/06 08:24:06;;;;;;;2.95;1.40;;;;;;;;;;6266237;22;20023;-41
2021/12/06 08:26:33;;;;;;;3.33;1.35;;;;;;;;;;6265274;22;20012;-41
2021/12/06 08:28:59;;;;;;;2.25;1.65;;;;;;;;;;6265643;22;20079;-41
2021/12/06 08:31:27;;;;;;;2.30;1.83;;;;;;;;;;6266159;22;20478;-44
2021/12/06 08:33:53;;;;;;;3.60;1.38;;;;;;;;;;6263276;22;20047;-42
2021/12/06 08:36:19;;;;;;;2.80;1.30;;;;;;;;;;6266351;22;20008;-43
2021/12/06 08:38:45;;;;;;;1.52;1.42;;;;;;;;;;6265444;22;20456;-42
2021/12/06 08:41:12;;;;;;;1.85;1.65;;;;;;;;;;6265676;22;20100;-42
2021/12/06 08:43:38;;;;;;;3.17;2.40;;;;;;;;;;6264028;22;20027;-45
2021/12/06 08:46:07;;;;;;;2.33;1.60;;;;;;;;;;6263455;22;20011;-43
2021/12/06 08:48:34;;;;;;;4.57;2.53;;;;;;;;;;6262590;22;20101;-46
2021/12/06 08:51:01;;;;;;;2.97;1.40;;;;;;;;;;6261359;22;20027;-45
2021/12/06 08:53:26;;;;;;;2.25;1.60;;;;;;;;;;6262012;22;20015;-44
2021/12/06 08:55:52;;;;;;;4.45;1.63;;;;;;;;;;6262812;22;20351;-44
2021/12/06 08:58:18;;;;;;;4.55;1.60;;;;;;;;;;6262065;22;20102;-42
2021/12/06 09:00:43;;;;;;;3.40;1.80;;;;;;;;;;6262252;22;20736;-42
2021/12/06 09:03:08;;;;;;;3.97;2.05;;;;;;;;;;6262006;22;20049;-45
2021/12/06 09:05:37;;;;;;;3.75;1.83;;;;;;;;;;6257220;22;20096;-43
2021/12/06 09:08:03;;;;;;;2.40;1.40;;;;;;;;;;6259299;22;20443;-49
2021/12/06 09:10:30;;;;;;;5.35;1.95;;;;;;;;;;6256956;22;20224;-43
2021/12/06 09:12:55;;;;;;;3.65;1.65;;;;;;;;;;6257196;22;20400;-42
2021/12/06 09:15:21;;;;;;;2.92;1.98;;;;;;;;;;6259226;22;20447;-43
2021/12/06 09:17:47;;;;;;;1.65;1.55;;;;;;;;;;6257992;22;20010;-43
2021/12/06 09:20:13;;;;;;;4.40;1.45;;;;;;;;;;6259307;22;20091;-46
2021/12/06 09:22:39;;;;;;;4.25;1.75;;;;;;;;;;6258484;22;20054;-43
2021/12/06 09:25:06;;;;;;;3.08;2.00;;;;;;;;;;6258445;22;20444;-42
2021/12/06 09:27:32;;;;;;;4.30;2.20;;;;;;;;;;6258539;22;20161;-43
2021/12/06 09:29:58;;;;;;;5.85;1.90;;;;;;;;;;6258848;22;20024;-45
2021/12/06 09:32:23;;;;;;;7.22;2.35;;;;;;;;;;6258855;22;20003;-46
2021/12/06 09:34:48;;;;;;;6.07;2.13;;;;;;;;;;6259094;22;20024;-45
2021/12/06 09:37:15;;;;;;;6.35;2.47;;;;;;;;;;6258897;22;20344;-46
2021/12/06 09:39:40;;;;;;;6.28;2.35;;;;;;;;;;6258468;22;20076;-44
2021/12/06 09:42:06;;;;;;;6.30;2.00;;;;;;;;;;6258336;22;20494;-46
2021/12/06 09:44:31;;;;;;;3.78;2.35;;;;;;;;;;6259361;22;20087;-46
2021/12/06 09:46:57;;;;;;;3.83;1.90;;;;;;;;;;6258974;22;20003;-43
2021/12/06 09:49:23;;;;;;;3.50;2.15;;;;;;;;;;6257890;22;20402;-44
2021/12/06 09:51:51;;;;;;;5.47;1.95;;;;;;;;;;6259509;22;20538;-44
2021/12/06 09:54:27;;;;;;;1.65;1.33;;;;;;;;;;6256546;22;20023;-43
2021/12/06 09:56:53;;;;;;;2.80;0.90;;;;;;;;;;6258108;22;20011;-47
2021/12/06 09:59:20;;;;;;;4.85;1.60;;;;;;;;;;6260638;22;20094;-44
2021/12/06 10:01:50;;;;;;;2.38;1.60;;;;;;;;;;6259090;22;20110;-45
2021/12/06 10:04:17;;;;;;;3.03;2.00;;;;;;;;;;6258248;22;20023;-44
2021/12/06 10:06:43;;;;;;;4.93;1.77;;;;;;;;;;6259155;22;20814;-43
2021/12/06 10:09:10;;;;;;;1.50;1.30;;;;;;;;;;6257766;22;20012;-44
2021/12/06 10:11:35;;;;;;;4.72;1.48;;;;;;;;;;6259066;22;20011;-44
2021/12/06 10:14:00;;;;;;;1.25;1.15;;;;;;;;;;6259321;22;20016;-43
2021/12/06 10:16:26;;;;;;;4.85;1.60;;;;;;;;;;6257228;22;20029;-43
2021/12/06 10:18:52;;;;;;;1.15;0.85;;;;;;;;;;6260242;22;20011;-43
2021/12/06 10:21:17;;;;;;;1.92;0.73;;;;;;;;;;6258285;22;20012;-43
2021/12/06 10:23:43;;;;;;;1.27;1.00;;;;;;;;;;6256357;22;20020;-44
2021/12/06 10:26:09;;;;;;;1.88;1.17;;;;;;;;;;6258442;22;20352;-45
2021/12/06 10:28:35;;;;;;;6.18;1.20;;;;;;;;;;6257599;22;20023;-43
2021/12/06 10:31:03;;;;;;;2.42;1.20;;;;;;;;;;6260510;22;20023;-43
2021/12/06 10:33:30;;;;;;;1.83;0.88;;;;;;;;;;6257769;22;20050;-44
2021/12/06 10:35:57;;;;;;;1.80;1.42;;;;;;;;;;6258906;22;20023;-44
2021/12/06 10:38:32;;;;;;;5.72;1.90;;;;;;;;;;6257698;22;20008;-44
2021/12/06 10:40:59;;;;;;;4.72;1.58;;;;;;;;;;6260219;22;20027;-44
2021/12/06 10:43:24;;;;;;;5.20;2.22;;;;;;;;;;6257550;22;20008;-43
2021/12/06 10:45:50;;;;;;;2.58;1.75;;;;;;;;;;6258524;22;20125;-45
2021/12/06 10:48:15;;;;;;;5.50;1.60;;;;;;;;;;6258661;22;20016;-43
2021/12/06 10:51:01;;;;;;;3.58;2.08;;;;;;;;;;6257696;22;20028;-45
2021/12/06 10:53:33;;;;;;;2.45;1.60;;;;;;;;;;6255993;22;20106;-48
2021/12/06 10:55:58;;;;;;;2.38;2.20;;;;;;;;;;6259025;22;20418;-43
2021/12/06 10:58:26;;;;;;;5.32;1.80;;;;;;;;;;6258192;22;20050;-44
2021/12/06 11:00:56;;;;;;;3.08;1.80;;;;;;;;;;6258694;22;20588;-45
2021/12/06 11:03:21;;;;;;;4.75;1.85;;;;;;;;;;6257761;22;20015;-44
2021/12/06 11:05:49;;;;;;;4.05;1.60;;;;;;;;;;6254502;22;20027;-44
2021/12/06 11:08:15;;;;;;;4.55;2.30;;;;;;;;;;6257167;22;20449;-44
2021/12/06 11:10:46;;;;;;;5.30;1.70;;;;;;;;;;6259331;22;20059;-45
2021/12/06 11:13:23;;;;;;;5.47;2.22;;;;;;;;;;6258205;22;20067;-42
2021/12/06 11:16:15;;;;;;;2.42;1.70;;;;;;;;;;6260681;22;20037;-44
2021/12/06 11:18:43;;;;;;;4.95;2.25;;;;;;;;;;6241303;22;20012;-44
2021/12/06 11:21:17;;;;;;;4.35;2.00;;;;;;;;;;6261927;22;20007;-43
2021/12/06 11:24:14;;;;;;;8.88;3.25;;;;;;;;;;6249061;22;20570;-44
2021/12/06 11:26:41;;;;;;;5.55;1.70;;;;;;;;;;6210663;22;20008;-44
2021/12/06 11:29:09;;;;;;;2.85;1.83;;;;;;;;;;6260542;22;20016;-43
2021/12/06 11:31:35;;;;;;;2.33;1.98;;;;;;;;;;6259113;22;20016;-44
2021/12/06 11:34:01;;;;;;;2.60;2.20;;;;;;;;;;6260039;22;20103;-45
2021/12/06 11:36:27;;;;;;;3.85;1.98;;;;;;;;;;6257390;22;20015;-43
2021/12/06 11:39:16;;;;;;;3.15;1.90;;;;;;;;;;6259850;22;20018;-45
2021/12/06 11:41:43;;;;;;;4.22;1.83;;;;;;;;;;6259289;22;20096;-46
2021/12/06 11:44:17;;;;;;;3.90;2.38;;;;;;;;;;6258812;22;20039;-45
2021/12/06 11:46:43;;;;;;;3.50;2.35;;;;;;;;;;6291207;22;20007;-44
2021/12/06 11:49:18;;;;;;;5.82;1.70;;;;;;;;;;6290577;22;20011;-45
2021/12/06 11:51:44;;;;;;;6.70;1.95;;;;;;;;;;6290282;22;20038;-45
2021/12/06 11:54:09;;;;;;;3.50;1.65;;;;;;;;;;6290656;22;20008;-44
2021/12/06 11:56:42;;;;;;;1.95;1.67;;;;;;;;;;6288628;22;20058;-44
2021/12/06 11:59:08;;;;;;;2.22;1.50;;;;;;;;;;6290313;22;20015;-43
2021/12/06 12:01:38;;;;;;;2.80;1.60;;;;;;;;;;6290973;22;20015;-41
2021/12/06 12:04:09;;;;;;;2.92;1.35;;;;;;;;;;6289298;22;20018;-44
2021/12/06 12:06:39;;;;;;;1.90;1.27;;;;;;;;;;6289546;22;20019;-45
2021/12/06 12:09:04;;;;;;;;;;;;;;;;;;6290164;22;20007;-45
2021/12/06 12:11:29;;;;;;;2.15;1.02;;;;;;;;;;6291091;22;19985;-44
2021/12/06 12:13:56;;;;;;;1.77;1.40;;;;;;;;;;6290065;22;20025;-44
2021/12/06 12:16:22;;;;;;;4.80;1.40;;;;;;;;;;6290479;22;20528;-44
2021/12/06 12:18:47;;;;;;;2.88;1.08;;;;;;;;;;6289324;22;20083;-43
2021/12/06 12:21:14;;;;;;;1.02;0.98;;;;;;;;;;6289302;22;20122;-44
2021/12/06 12:23:41;;;;;;;1.92;1.42;;;;;;;;;;6291204;22;20594;-43
2021/12/06 12:26:13;;;;;;;2.28;1.10;;;;;;;;;;6291379;22;20467;-43
2021/12/06 12:29:23;;;;;;;2.72;1.20;;;;;;;;;;6289289;22;20474;-43
2021/12/06 12:31:31;;;;;;;1.80;1.25;;;;;;;;;;6286187;22;20487;-45
2021/12/06 12:33:57;;;;;;;2.83;1.15;;;;;;;;;;6289930;22;20064;-43
2021/12/06 12:36:24;;;;;;;3.60;1.08;;;;;;;;;;6290731;22;20026;-45
2021/12/06 12:38:53;;;;;;;6.47;1.45;;;;;;;;;;6284493;22;20022;-44
2021/12/06 12:41:19;;;;;;;1.92;1.00;;;;;;;;;;6285019;22;20057;-45
2021/12/06 12:43:44;;;;;;;1.83;1.17;;;;;;;;;;6288455;22;20019;-44
2021/12/06 12:46:12;;;;;;;3.45;1.60;;;;;;;;;;6288077;22;20018;-45
2021/12/06 12:48:56;;;;;;;2.67;1.60;;;;;;;;;;6286789;22;20011;-45
2021/12/06 12:51:26;;;;;;;2.75;2.08;;;;;;;;;;6286078;22;20058;-43
2021/12/06 12:53:51;;;;;;;;;;;;;;;;;;6289236;22;20011;-46
2021/12/06 12:56:21;;;;;;;3.40;1.27;;;;;;;;;;6287182;22;20010;-44
2021/12/06 12:58:48;;;;;;;3.60;1.58;;;;;;;;;;6286307;22;20014;-44
2021/12/06 13:01:14;;;;;;;3.85;1.65;;;;;;;;;;6286895;22;20012;-44
2021/12/06 13:03:39;;;;;;;2.83;1.55;;;;;;;;;;6286975;22;20094;-43
2021/12/06 13:06:23;;;;;;;3.67;1.50;;;;;;;;;;6289104;22;20031;-43
2021/12/06 13:09:01;;;;;;;4.38;1.65;;;;;;;;;;6288076;22;20046;-45
2021/12/06 13:11:47;;;;;;;6.03;2.00;;;;;;;;;;6285956;22;20347;-44
2021/12/06 13:14:26;;;;;;;4.20;1.75;;;;;;;;;;6278173;22;20022;-48
2021/12/06 13:17:00;;;;;;;4.55;2.17;;;;;;;;;;6286462;22;20019;-44
2021/12/06 13:20:12;;;;;;;3.42;1.73;;;;;;;;;;6287983;22;20030;-43
2021/12/06 13:22:19;;;;;;;5.88;2.15;;;;;;;;;;6285696;22;20558;-46
2021/12/06 13:24:45;;;;;;;12.80;3.83;;;;;;;;;;6288239;22;20008;-45
2021/12/06 13:27:33;;;;;;;4.47;2.65;;;;;;;;;;6289770;22;20022;-43
2021/12/06 13:30:18;;;;;;;10.63;2.95;;;;;;;;;;6245855;22;20141;-43
2021/12/06 13:32:47;;;;;;;6.05;2.22;;;;;;;;;;6288726;22;20038;-45
2021/12/06 13:35:12;;;;;;;;;;;;;;;;;;6289323;22;20114;-44
2021/12/06 13:37:38;;;;;;;4.85;1.45;;;;;;;;;;6290100;22;19934;-46
2021/12/06 13:40:13;;;;;;;3.78;1.60;;;;;;;;;;6290670;22;20046;-44
2021/12/06 13:42:40;;;;;;;5.45;1.73;;;;;;;;;;6290061;22;20015;-44
2021/12/06 13:45:14;;;;;;;3.75;1.23;;;;;;;;;;6289107;22;20015;-43
2021/12/06 13:47:39;;;;;;;2.15;1.52;;;;;;;;;;6288754;22;20019;-42
2021/12/06 13:50:10;;;;;;;8.90;1.70;;;;;;;;;;6290359;22;20019;-42
2021/12/06 13:52:40;;;;;;;2.97;1.55;;;;;;;;;;6288867;22;20034;-42
2021/12/06 13:55:19;;;;;;;2.70;1.23;;;;;;;;;;6288519;22;20105;-43
2021/12/06 13:57:46;;;;;;;3.15;1.63;;;;;;;;;;6287974;22;20339;-42
2021/12/06 14:00:12;;;;;;;4.95;1.98;;;;;;;;;;6289663;22;20015;-45
2021/12/06 14:02:38;;;;;;;1.10;0.90;;;;;;;;;;6290187;22;20081;-43
2021/12/06 14:05:04;;;;;;;5.38;2.20;;;;;;;;;;6289350;22;20479;-43
2021/12/06 14:07:31;;;;;;;5.32;1.67;;;;;;;;;;6289594;22;20747;-44
2021/12/06 14:09:58;;;;;;;4.57;1.33;;;;;;;;;;6289314;22;20019;-45
2021/12/06 14:12:26;;;;;;;5.32;2.47;;;;;;;;;;6288659;22;20396;-44
2021/12/06 14:14:55;;;;;;;2.95;1.40;;;;;;;;;;6288859;22;20023;-47
2021/12/06 14:17:21;;;;;;;1.38;0.95;;;;;;;;;;6288613;22;20042;-45
2021/12/06 14:19:47;;;;;;;8.48;1.88;;;;;;;;;;6290330;22;20015;-44
2021/12/06 14:22:13;;;;;;;5.22;1.20;;;;;;;;;;6288885;22;20011;-45
2021/12/06 14:24:39;;;;;;;1.95;1.08;;;;;;;;;;6290042;22;20015;-44
2021/12/06 14:27:05;;;;;;;3.63;1.27;;;;;;;;;;6288189;22;20015;-47
2021/12/06 14:29:33;;;;;;;3.70;1.65;;;;;;;;;;6289643;22;20010;-43
2021/12/06 14:31:59;;;;;;;1.65;1.20;;;;;;;;;;6288393;22;20033;-45
2021/12/06 14:34:27;;;;;;;5.05;1.23;;;;;;;;;;6288556;22;20012;-45
2021/12/06 14:36:53;;;;;;;5.60;1.50;;;;;;;;;;6289766;22;20026;-44
2021/12/06 14:39:20;;;;;;;2.03;1.10;;;;;;;;;;6288926;22;20003;-45
2021/12/06 14:41:54;;;;;;;4.72;1.40;;;;;;;;;;6290101;22;20471;-45
2021/12/06 14:44:50;;;;;;;3.05;1.48;;;;;;;;;;6286648;22;20709;-43
2021/12/06 14:47:39;;;;;;;8.77;1.23;;;;;;;;;;6275354;22;20499;-44
2021/12/06 14:50:07;;;;;;;2.67;1.35;;;;;;;;;;6292039;22;20015;-46
2021/12/06 14:52:39;;;;;;;4.22;1.42;;;;;;;;;;6290478;22;20076;-43
2021/12/06 14:58:17;;;;;;;5.47;1.25;;;;;;;;;;6292117;22;20031;-46
2021/12/06 15:00:56;;;;;;;4.63;1.08;;;;;;;;;;6292034;22;20363;-45
2021/12/06 15:03:22;;;;;;;;;;;;;;;;;;6287278;22;20026;-44